Main page
METAR-TAF:

METAR-TAF

Airports :

Newton Municipal Airport

Newton, Iowa, United States

latitude: 41-41N, longitude: 093-01W, elevation: 951 ft

Current weather observation

The report was made 47 minutes ago, at 23:55 UTC
Wind 5 mph from the East
Temperature 61°F
Humidity 23%
Pressure 30.17 in. Hg
Visibility: 10 miles
Clear sky

METAR: KTNU 242355Z AUTO 08004KT 10SM CLR 16/M05 A3017 RMK A01

Time: 19:42 (00:42 UTC)


TAF: missing

Weather observations and forecasts of more than 4000 airports (METAR and TAF reports).

The available stations are represented by yellow and red dots on the map.

Hover mouse over dot to see the name of the station.

Then click to see weather observations and forecasts.

To change the map : click on the green buttons with a black cross to zoom in, on the green button with a dash to zoom out, or on the green arrows for adjacent maps.


METAR-TAF: